Time;durP1;ratioP1;P1;durP2;ratioP2;P2;SDS_P1;SDS_P2;PMS_P1;PMS_P2;Temp;Humidity;BMP_temperature;BMP_pressure;BME280_temperature;BME280_humidity;BME280_pressure;Samples;Min_cycle;Max_cycle;Signal;HPM_P1;HPM_P2
2023/03/26 00:01:22;;;;;;;;;6.00;4.75;;;;;11.42;69.57;100417.84;5117936;27;46472;-64
2023/03/26 00:03:52;;;;;;;;;5.00;4.00;;;;;11.38;69.93;100417.06;5118087;27;45381;-64
2023/03/26 00:06:21;;;;;;;;;12.00;6.00;;;;;11.39;70.52;100421.44;5118281;27;45413;-64
2023/03/26 00:08:47;;;;;;;;;26.33;21.33;;;;;11.36;70.51;100410.16;5118338;27;45337;-64
2023/03/26 00:11:15;;;;;;;;;7.00;5.50;;;;;11.34;70.60;100407.53;5117836;27;46473;-64
2023/03/26 00:13:42;;;;;;;;;10.25;8.75;;;;;11.27;70.43;100406.00;5117906;27;45235;-64
2023/03/26 00:16:09;;;;;;;;;9.33;8.67;;;;;11.19;71.13;100400.97;5117867;27;45539;-64
2023/03/26 00:18:36;;;;;;;;;10.00;8.00;;;;;11.19;70.90;100400.13;5118253;27;45390;-64
2023/03/26 00:21:04;;;;;;;;;13.00;6.33;;;;;11.21;71.11;100406.19;5117863;27;46134;-64
2023/03/26 00:23:32;;;;;;;;;6.00;4.00;;;;;11.18;71.31;100403.66;5117783;27;45433;-64
2023/03/26 00:25:59;;;;;;;;;9.67;6.00;;;;;11.04;71.16;100380.38;5117931;27;45423;-64
2023/03/26 00:28:26;;;;;;;;;8.67;5.67;;;;;11.13;70.72;100386.22;5118010;27;45457;-64
2023/03/26 00:31:00;;;;;;;;;7.50;4.25;;;;;11.08;71.03;100390.78;5116893;27;46281;-64
2023/03/26 00:33:27;;;;;;;;;11.25;5.75;;;;;11.05;71.57;100382.97;5117883;27;45854;-64
2023/03/26 00:35:55;;;;;;;;;10.00;6.00;;;;;11.09;71.76;100381.94;5118505;27;45311;-64
2023/03/26 00:38:22;;;;;;;;;9.00;7.00;;;;;11.07;71.88;100378.50;5121490;27;45389;-64
2023/03/26 00:40:49;;;;;;;;;11.33;7.00;;;;;11.05;71.37;100374.19;5121388;27;46185;-64
2023/03/26 00:43:21;;;;;;;;;7.00;3.25;;;;;11.03;71.08;100371.59;5121164;27;45355;-64
2023/03/26 00:45:52;;;;;;;;;8.75;4.00;;;;;11.06;71.23;100378.56;5120568;27;45257;-64
2023/03/26 00:48:19;;;;;;;;;12.00;4.00;;;;;11.05;71.88;100361.88;5121295;27;45193;-64
2023/03/26 00:50:46;;;;;;;;;5.25;4.75;;;;;11.03;71.28;100358.44;5120818;27;45395;-64
2023/03/26 00:53:12;;;;;;;;;8.00;6.00;;;;;11.02;72.07;100351.41;5120605;27;45237;-64
2023/03/26 00:55:39;;;;;;;;;5.00;4.25;;;;;10.97;71.25;100343.66;5121264;27;45702;-64
2023/03/26 00:58:05;;;;;;;;;10.00;4.75;;;;;10.71;71.34;100286.53;5121227;27;45613;-64
2023/03/26 01:00:34;;;;;;;;;6.75;5.50;;;;;10.93;71.31;100320.97;5120804;27;46282;-64
2023/03/26 01:03:04;;;;;;;;;3.33;3.33;;;;;10.95;71.01;100332.31;5120904;27;46062;-64
2023/03/26 01:05:35;;;;;;;;;9.33;4.00;;;;;10.93;71.98;100326.22;5120950;27;45465;-64
2023/03/26 01:08:13;;;;;;;;;9.00;5.00;;;;;10.97;71.61;100324.38;5121134;27;45442;-64
2023/03/26 01:10:43;;;;;;;;;6.00;5.33;;;;;10.95;71.37;100313.88;5120864;27;46302;-64
2023/03/26 01:13:08;;;;;;;;;5.67;3.33;;;;;10.74;71.29;100272.41;5120753;27;45332;-64
2023/03/26 01:15:37;;;;;;;;;6.00;5.00;;;;;10.93;71.41;100305.16;5120553;27;45348;-64
2023/03/26 01:18:04;;;;;;;;;6.75;5.00;;;;;10.93;70.93;100299.03;5120859;27;45437;-64
2023/03/26 01:20:37;;;;;;;;;9.00;3.33;;;;;10.87;71.29;100286.06;5120550;27;46640;-64
2023/03/26 01:23:06;;;;;;;;;3.50;2.50;;;;;10.87;70.94;100280.78;5120506;27;45287;-64
2023/03/26 01:25:40;;;;;;;;;6.00;5.00;;;;;10.88;71.45;100282.53;5120762;27;45310;-64
2023/03/26 01:28:11;;;;;;;;;5.50;3.00;;;;;10.86;70.83;100266.75;5120865;27;45775;-64
2023/03/26 01:30:57;;;;;;;;;7.00;3.50;;;;;10.83;71.18;100268.63;5120236;27;46536;-64
2023/03/26 01:33:32;;;;;;;;;5.50;3.50;;;;;10.84;71.64;100268.59;5120458;27;45301;-64
2023/03/26 01:36:03;;;;;;;;;3.00;3.00;;;;;10.84;71.47;100259.81;5120614;27;45304;-64
2023/03/26 01:38:47;;;;;;;;;5.75;4.00;;;;;10.80;71.55;100254.66;5120819;27;45348;-64
2023/03/26 01:41:35;;;;;;;;;13.00;10.33;;;;;10.77;71.99;100245.97;5120129;27;46290;-64
2023/03/26 01:44:14;;;;;;;;;3.25;3.25;;;;;10.82;71.79;100245.81;5120219;27;45250;-64
2023/03/26 01:46:41;;;;;;;;;5.00;3.25;;;;;10.84;71.29;100247.50;5120230;27;45294;-64
2023/03/26 01:49:11;;;;;;;;;7.00;3.25;;;;;10.76;71.66;100228.44;5119522;27;45248;-64
2023/03/26 01:51:39;;;;;;;;;5.50;3.75;;;;;10.73;71.73;100232.06;5120175;27;45603;-64
2023/03/26 01:54:08;;;;;;;;;9.50;2.75;;;;;10.53;72.22;100193.19;5119934;27;45441;-64
2023/03/26 01:56:34;;;;;;;;;6.50;3.75;;;;;10.68;72.01;100222.59;5119992;27;45267;-64
2023/03/26 01:59:24;;;;;;;;;3.25;2.00;;;;;10.67;72.33;100212.97;5120273;27;45297;-64
2023/03/26 02:02:03;;;;;;;;;4.00;2.25;;;;;10.67;72.36;100210.31;5119021;27;46737;-64
2023/03/26 02:04:45;;;;;;;;;7.00;3.50;;;;;10.63;72.03;100209.56;5119535;27;45713;-64
2023/03/26 02:07:27;;;;;;;;;5.00;3.00;;;;;10.59;72.70;100200.91;5120022;27;45452;-64
2023/03/26 02:10:05;;;;;;;;;7.00;4.00;;;;;10.61;72.64;100191.16;5119941;27;45243;-64
2023/03/26 02:12:32;;;;;;;;;5.75;4.00;;;;;10.55;72.20;100167.69;5119646;27;46589;-64
2023/03/26 02:15:01;;;;;;;;;10.50;6.00;;;;;10.60;72.56;100160.50;5119597;27;45393;-64
2023/03/26 02:17:28;;;;;;;;;6.00;3.25;;;;;10.59;72.18;100148.25;5119554;27;45434;-64
2023/03/26 02:19:55;;;;;;;;;4.50;4.50;;;;;10.62;72.36;100156.03;5120018;27;45323;-64
2023/03/26 02:22:21;;;;;;;;;6.75;3.50;;;;;10.55;72.58;100148.41;5119473;27;46300;-64
2023/03/26 02:24:47;;;;;;;;;7.50;5.75;;;;;10.58;72.71;100137.75;5119422;27;45375;-64
2023/03/26 02:27:12;;;;;;;;;7.75;5.75;;;;;10.56;72.67;100132.56;5119818;27;45412;-64
2023/03/26 02:29:38;;;;;;;;;3.75;3.75;;;;;10.59;72.44;100132.44;5119603;27;45301;-64
2023/03/26 02:32:06;;;;;;;;;9.00;4.00;;;;;10.56;72.19;100108.00;5119090;27;46769;-64
2023/03/26 02:34:32;;;;;;;;;4.00;4.00;;;;;10.57;72.08;100123.75;5123891;27;45402;-64
2023/03/26 02:36:58;;;;;;;;;8.00;5.00;;;;;10.50;72.92;100106.44;5140272;27;45171;-64
2023/03/26 02:39:25;;;;;;;;;8.67;6.00;;;;;10.51;72.13;100097.59;5140543;27;45319;-64
2023/03/26 02:41:50;;;;;;;;;6.67;4.33;;;;;10.40;72.29;100068.19;5139790;27;47690;-64
2023/03/26 02:44:15;;;;;;;;;7.33;6.00;;;;;10.46;72.18;100078.50;5139995;27;45490;-64
2023/03/26 02:46:41;;;;;;;;;5.50;5.00;;;;;10.50;72.15;100076.59;5140028;27;45617;-64
2023/03/26 02:49:07;;;;;;;;;5.25;5.25;;;;;10.51;72.40;100073.91;5139923;27;45371;-64
2023/03/26 02:51:33;;;;;;;;;6.67;5.67;;;;;10.49;73.31;100067.84;5139817;27;45982;-64
2023/03/26 02:54:00;;;;;;;;;8.00;5.25;;;;;10.53;72.97;100063.34;5139792;27;45307;-64
2023/03/26 02:56:25;;;;;;;;;7.00;5.50;;;;;10.55;73.07;100051.84;5139906;27;45449;-63
2023/03/26 02:58:50;;;;;;;;;7.67;4.67;;;;;10.49;72.90;100033.66;5118137;27;45511;-64
2023/03/26 03:01:17;;;;;;;;;11.33;6.00;;;;;10.53;73.29;100040.53;5104984;27;46345;-64
2023/03/26 03:03:42;;;;;;;;;5.00;3.50;;;;;10.53;73.34;100015.97;5118897;27;45253;-64
2023/03/26 03:06:08;;;;;;;;;6.00;4.00;;;;;10.53;72.85;100014.22;5118181;27;45155;-64
2023/03/26 03:08:33;;;;;;;;;12.50;9.00;;;;;10.53;73.31;100005.44;5118963;27;45440;-63
2023/03/26 03:11:01;;;;;;;;;6.75;4.50;;;;;10.54;73.43;100002.78;5118895;27;45385;-64
2023/03/26 03:13:27;;;;;;;;;5.50;4.00;;;;;10.51;72.83;99979.16;5118802;27;45331;-64
2023/03/26 03:15:52;;;;;;;;;9.00;4.00;;;;;10.49;73.54;99982.78;5118831;27;45325;-64
2023/03/26 03:18:18;;;;;;;;;5.25;4.00;;;;;10.46;73.79;99986.38;5118918;27;45336;-64
2023/03/26 03:20:43;;;;;;;;;7.33;4.67;;;;;10.45;73.99;99977.59;5118733;27;45606;-64
2023/03/26 03:23:10;;;;;;;;;12.67;6.00;;;;;10.40;73.82;99962.91;5118779;27;45291;-63
2023/03/26 03:25:37;;;;;;;;;8.50;5.00;;;;;10.34;74.46;99958.72;5118617;27;45277;-63
2023/03/26 03:28:02;;;;;;;;;11.00;6.00;;;;;10.40;73.81;99958.50;5118785;27;45391;-64
2023/03/26 03:30:29;;;;;;;;;10.00;7.33;;;;;10.33;74.85;99949.06;5118243;27;46092;-64
2023/03/26 03:32:57;;;;;;;;;8.25;5.00;;;;;10.31;73.84;99942.13;5118345;27;45365;-63
2023/03/26 03:35:23;;;;;;;;;9.33;7.00;;;;;10.35;75.35;99942.00;5118556;27;45432;-64
2023/03/26 03:37:48;;;;;;;;;8.00;5.67;;;;;10.27;75.85;99918.56;5118571;27;45442;-63
2023/03/26 03:40:14;;;;;;;;;7.00;5.00;;;;;10.36;75.33;99911.28;5118413;27;46183;-64
2023/03/26 03:42:39;;;;;;;;;7.33;4.00;;;;;10.40;75.62;99916.38;5118643;27;45711;-64
2023/03/26 03:45:05;;;;;;;;;9.00;5.00;;;;;10.32;75.27;99894.72;5118443;27;45796;-63
2023/03/26 03:47:31;;;;;;;;;10.33;6.33;;;;;10.22;75.69;99885.44;5118716;27;45477;-63
2023/03/26 03:49:58;;;;;;;;;8.00;6.00;;;;;10.41;76.22;99910.22;5117788;27;45443;-64
2023/03/26 03:52:27;;;;;;;;;6.75;5.25;;;;;10.39;77.57;99895.41;5118335;27;45434;-64
2023/03/26 03:54:55;;;;;;;;;9.00;6.00;;;;;10.41;76.89;99894.44;5118525;27;45407;-63
2023/03/26 03:57:20;;;;;;;;;10.00;4.33;;;;;10.31;77.63;99876.34;5118522;27;45216;-64
2023/03/26 03:59:46;;;;;;;;;6.00;5.00;;;;;10.33;76.69;99885.91;5118040;27;47331;-64
2023/03/26 04:02:12;;;;;;;;;10.00;7.00;;;;;10.31;76.52;99871.97;5117900;27;45216;-63
2023/03/26 04:04:37;;;;;;;;;3.00;1.50;;;;;10.35;76.00;99876.22;5118341;27;45208;-63
2023/03/26 04:07:04;;;;;;;;;3.00;2.00;;;;;10.34;75.02;99878.91;5118583;27;45761;-63
2023/03/26 04:09:30;;;;;;;;;2.00;2.00;;;;;10.29;74.50;99872.00;5118140;27;46372;-63
2023/03/26 04:11:55;;;;;;;;;3.50;2.75;;;;;10.34;74.74;99881.53;5120581;27;45473;-63
2023/03/26 04:14:20;;;;;;;;;3.00;1.00;;;;;10.34;74.42;99861.34;5121493;27;45477;-63
2023/03/26 04:16:47;;;;;;;;;1.00;0.00;;;;;10.32;73.70;99873.66;5121819;27;45494;-63
2023/03/26 04:19:14;;;;;;;;;0.00;0.00;;;;;10.26;73.38;99868.63;5121560;27;47492;-63
2023/03/26 04:21:41;;;;;;;;;6.50;5.00;;;;;10.17;74.83;99859.28;5121606;27;45377;-63
2023/03/26 04:24:07;;;;;;;;;0.75;0.75;;;;;10.15;75.12;99855.88;5121653;27;45474;-64
2023/03/26 04:26:33;;;;;;;;;1.50;0.00;;;;;10.11;75.48;99849.00;5121795;27;45217;-64
2023/03/26 04:29:02;;;;;;;;;2.25;1.00;;;;;10.12;75.26;99845.44;5121464;27;46481;-63
2023/03/26 04:31:29;;;;;;;;;2.00;0.00;;;;;10.06;75.03;99827.25;5121608;27;45386;-63
2023/03/26 04:34:06;;;;;;;;;0.50;0.50;;;;;10.02;75.90;99826.50;5121433;27;45539;-63
2023/03/26 04:36:33;;;;;;;;;2.25;0.00;;;;;9.81;76.25;99799.19;5121633;27;45316;-63
2023/03/26 04:39:01;;;;;;;;;0.25;0.00;;;;;9.82;76.25;99813.22;5121337;27;45751;-63
2023/03/26 04:41:27;;;;;;;;;0.00;0.00;;;;;9.74;78.15;99795.94;5121312;27;45419;-63
2023/03/26 04:43:54;;;;;;;;;0.50;0.00;;;;;9.79;78.46;99795.75;5121341;27;45454;-64
2023/03/26 04:46:22;;;;;;;;;0.75;0.00;;;;;9.76;78.05;99798.50;5121527;27;45229;-63
2023/03/26 04:48:50;;;;;;;;;0.00;0.00;;;;;9.63;78.85;99771.78;5112201;27;45709;-64
2023/03/26 04:51:17;;;;;;;;;0.00;0.00;;;;;9.58;77.53;99761.44;5099907;27;45317;-63
2023/03/26 04:53:57;;;;;;;;;0.00;0.00;;;;;9.57;78.50;99764.97;5100549;27;45428;-63
2023/03/26 04:56:51;;;;;;;;;1.00;0.00;;;;;9.59;80.35;99764.91;5100580;27;45242;-63
2023/03/26 04:59:34;;;;;;;;;0.00;0.00;;;;;9.54;83.36;99756.31;5100308;27;47238;-63
2023/03/26 05:02:02;;;;;;;;;1.50;0.25;;;;;9.49;80.95;99747.75;5100108;27;45464;-63
2023/03/26 05:04:28;;;;;;;;;1.75;1.75;;;;;9.40;80.28;99746.28;5100278;27;45240;-63
2023/03/26 05:06:56;;;;;;;;;2.00;0.75;;;;;9.31;80.89;99739.56;5100746;27;45425;-63
2023/03/26 05:09:25;;;;;;;;;0.00;0.00;;;;;9.21;82.38;99725.88;5100074;27;47287;-63
2023/03/26 05:11:51;;;;;;;;;0.00;0.00;;;;;9.15;81.97;99720.84;5100074;27;45316;-63
2023/03/26 05:14:17;;;;;;;;;1.00;1.00;;;;;9.26;80.78;99735.38;5100096;27;45538;-63
2023/03/26 05:16:45;;;;;;;;;0.00;0.00;;;;;9.21;80.97;99718.00;5100345;27;45469;-63
2023/03/26 05:19:10;;;;;;;;;1.75;0.00;;;;;9.16;81.56;99714.66;5099929;27;47108;-63
2023/03/26 05:21:36;;;;;;;;;1.75;0.25;;;;;9.12;81.84;99701.69;5099798;27;45367;-63
2023/03/26 05:24:01;;;;;;;;;0.00;0.00;;;;;9.09;81.91;99704.44;5099057;27;45435;-63
2023/03/26 05:26:28;;;;;;;;;0.00;0.00;;;;;9.09;83.09;99697.44;5100315;27;45306;-63
2023/03/26 05:28:53;;;;;;;;;1.50;0.50;;;;;9.13;82.65;99698.16;5099871;27;46236;-63
2023/03/26 05:31:20;;;;;;;;;0.00;0.00;;;;;9.14;81.51;99689.38;5099913;27;45605;-63
2023/03/26 05:33:46;;;;;;;;;2.25;0.50;;;;;9.04;83.35;99681.81;5099868;27;45327;-63
2023/03/26 05:36:14;;;;;;;;;0.75;0.00;;;;;9.04;82.17;99676.56;5099831;27;45464;-63
2023/03/26 05:38:40;;;;;;;;;0.75;0.75;;;;;9.02;82.63;99672.28;5099652;27;46224;-63
2023/03/26 05:41:07;;;;;;;;;3.50;0.50;;;;;8.97;82.85;99654.03;5099689;27;45274;-63
2023/03/26 05:43:33;;;;;;;;;0.50;0.50;;;;;8.98;84.38;99660.16;5099826;27;45353;-63
2023/03/26 05:45:59;;;;;;;;;1.00;1.00;;;;;8.95;83.94;99644.53;5100106;27;45574;-63
2023/03/26 05:48:25;;;;;;;;;1.00;0.00;;;;;8.95;84.00;99647.16;5104298;27;46493;-63
2023/03/26 05:50:53;;;;;;;;;0.00;0.00;;;;;8.99;83.93;99649.63;5119991;27;45307;-63
2023/03/26 05:53:20;;;;;;;;;3.00;0.00;;;;;8.98;83.83;99645.25;5120146;27;45374;-64
2023/03/26 05:55:49;;;;;;;;;1.00;0.00;;;;;8.99;83.93;99641.72;5120165;27;45412;-63
2023/03/26 05:58:15;;;;;;;;;3.50;0.00;;;;;8.95;84.96;99632.25;5119901;27;45555;-63
2023/03/26 06:00:41;;;;;;;;;3.75;1.00;;;;;8.94;85.57;99633.16;5119937;27;45376;-63
2023/03/26 06:03:11;;;;;;;;;5.50;0.00;;;;;8.94;84.57;99634.94;5119988;27;45281;-63
2023/03/26 06:05:38;;;;;;;;;2.25;0.00;;;;;8.92;85.08;99637.59;5120384;27;45302;-63
2023/03/26 06:08:04;;;;;;;;;2.00;0.00;;;;;8.87;84.47;99637.75;5119792;27;46574;-63
2023/03/26 06:10:30;;;;;;;;;2.00;1.00;;;;;8.88;85.30;99621.09;5119934;27;45748;-63
2023/03/26 06:12:55;;;;;;;;;1.50;0.00;;;;;8.91;84.85;99628.00;5119956;27;45216;-63
2023/03/26 06:15:21;;;;;;;;;1.00;0.50;;;;;8.93;84.22;99620.94;5119803;27;45499;-64
2023/03/26 06:17:47;;;;;;;;;3.25;0.00;;;;;8.92;83.79;99616.59;5119635;27;46533;-63
2023/03/26 06:20:13;;;;;;;;;0.00;0.00;;;;;8.90;84.10;99618.41;5119817;27;45178;-64
2023/03/26 06:22:38;;;;;;;;;2.00;1.00;;;;;8.87;84.31;99608.88;5119821;27;45499;-63
2023/03/26 06:25:05;;;;;;;;;2.00;0.25;;;;;8.83;84.64;99606.41;5119938;27;45276;-63
2023/03/26 06:27:30;;;;;;;;;0.00;0.00;;;;;8.80;84.60;99601.25;5119387;27;46425;-64
2023/03/26 06:29:55;;;;;;;;;2.00;1.00;;;;;8.76;84.49;99594.38;5119502;27;45397;-64
2023/03/26 06:32:21;;;;;;;;;2.00;0.00;;;;;8.83;84.71;99604.66;5119673;27;45378;-63
2023/03/26 06:34:47;;;;;;;;;0.00;0.00;;;;;8.75;84.95;99603.19;5119355;27;45858;-63
2023/03/26 06:37:12;;;;;;;;;1.50;0.00;;;;;8.69;84.29;99585.88;5119361;27;46614;-63
2023/03/26 06:39:37;;;;;;;;;0.00;0.00;;;;;8.71;85.11;99591.94;5119356;27;45319;-64
2023/03/26 06:42:03;;;;;;;;;0.00;0.00;;;;;8.68;85.15;99581.53;5119544;27;45406;-63
2023/03/26 06:44:28;;;;;;;;;1.00;1.00;;;;;8.76;85.10;99602.25;5119724;27;45300;-63
2023/03/26 06:46:53;;;;;;;;;1.00;0.00;;;;;8.71;85.05;99597.19;5119382;27;46271;-63
2023/03/26 06:49:19;;;;;;;;;1.00;1.00;;;;;8.79;85.53;99597.78;5119012;27;45446;-63
2023/03/26 06:51:45;;;;;;;;;0.00;0.00;;;;;8.79;85.09;99604.81;5119239;27;45193;-63
2023/03/26 06:54:11;;;;;;;;;1.50;0.00;;;;;8.81;85.29;99605.59;5119463;27;45255;-63
2023/03/26 06:56:36;;;;;;;;;0.00;0.00;;;;;8.79;85.84;99610.06;5119062;27;45505;-63
2023/03/26 06:59:01;;;;;;;;;0.00;0.00;;;;;8.81;85.70;99600.34;5119265;27;45285;-63
2023/03/26 07:01:26;;;;;;;;;1.75;0.00;;;;;8.77;85.51;99604.00;5119263;27;45414;-63
2023/03/26 07:03:52;;;;;;;;;0.00;0.00;;;;;8.79;84.34;99610.06;5119122;27;45365;-63
2023/03/26 07:06:17;;;;;;;;;0.00;0.00;;;;;8.76;84.55;99611.00;5119053;27;46701;-63
2023/03/26 07:08:42;;;;;;;;;1.25;0.00;;;;;8.79;83.99;99610.91;5118942;27;45352;-63
2023/03/26 07:11:08;;;;;;;;;0.00;0.00;;;;;8.78;85.03;99618.84;5119078;27;45292;-63
2023/03/26 07:13:33;;;;;;;;;0.00;0.00;;;;;8.74;85.26;99599.69;5119273;27;45482;-63
2023/03/26 07:15:58;;;;;;;;;0.00;0.00;;;;;8.82;84.52;99617.81;5118873;27;46270;-63
2023/03/26 07:18:24;;;;;;;;;0.00;0.00;;;;;8.81;84.83;99605.59;5118698;27;45296;-63
2023/03/26 07:20:50;;;;;;;;;0.00;0.00;;;;;8.61;84.07;99578.28;5119014;27;45442;-63
2023/03/26 07:23:19;;;;;;;;;0.00;0.00;;;;;8.59;85.20;99568.75;5119082;27;45426;-63
2023/03/26 07:25:48;;;;;;;;;1.25;0.00;;;;;8.82;85.24;99626.53;5118292;27;45696;-64
2023/03/26 07:28:29;;;;;;;;;1.00;0.25;;;;;8.85;85.20;99621.19;5118792;27;45309;-64
2023/03/26 07:30:54;;;;;;;;;1.00;0.00;;;;;8.88;85.50;99622.84;5118730;27;45254;-63
2023/03/26 07:33:45;;;;;;;;;0.00;0.00;;;;;8.85;85.96;99620.34;5118787;27;45301;-64
2023/03/26 07:36:39;;;;;;;;;0.00;0.00;;;;;8.82;85.63;99616.06;5118670;27;45589;-64
2023/03/26 07:39:34;;;;;;;;;0.00;0.00;;;;;8.88;86.04;99631.59;5118712;27;45353;-63
2023/03/26 07:42:17;;;;;;;;;1.00;1.00;;;;;8.84;86.40;99626.50;5035078;28;45379;-63
2023/03/26 07:44:49;;;;;;;;;0.00;0.00;;;;;8.85;85.98;99618.56;5020618;28;45420;-64
2023/03/26 07:47:31;;;;;;;;;1.75;0.75;;;;;8.91;89.46;99630.63;5020875;28;47505;-63
2023/03/26 07:49:57;;;;;;;;;3.00;1.00;;;;;8.86;100.00;99638.66;5054494;28;45341;-63
2023/03/26 07:52:24;;;;;;;;;0.50;0.50;;;;;8.75;100.00;99627.66;5075391;28;45372;-63
2023/03/26 07:54:50;;;;;;;;;2.00;0.50;;;;;8.65;100.00;99632.34;5058759;28;45493;-63
2023/03/26 07:57:35;;;;;;;;;1.00;1.00;;;;;8.59;100.00;99634.34;5058417;28;47343;-63
2023/03/26 08:00:10;;;;;;;;;2.00;1.00;;;;;8.52;100.00;99620.53;5058245;28;45889;-63
2023/03/26 08:02:58;;;;;;;;;1.25;0.75;;;;;8.52;100.00;99633.66;5058555;28;45474;-63
2023/03/26 08:05:26;;;;;;;;;1.50;1.50;;;;;8.49;100.00;99639.84;5058482;28;45452;-63
2023/03/26 08:07:57;;;;;;;;;2.75;1.00;;;;;8.46;100.00;99632.09;5058218;28;46539;-63
2023/03/26 08:10:51;;;;;;;;;2.00;1.00;;;;;8.33;100.00;99625.50;5058183;28;45469;-63
2023/03/26 08:13:40;;;;;;;;;2.00;2.00;;;;;8.41;100.00;99644.47;5058337;28;45390;-63
2023/03/26 08:16:16;;;;;;;;;1.00;1.00;;;;;8.44;100.00;99644.41;5058425;28;45406;-63
2023/03/26 08:18:54;;;;;;;;;2.00;2.00;;;;;8.46;100.00;99641.75;5097232;27;45473;-63
2023/03/26 08:21:27;;;;;;;;;4.50;1.00;;;;;8.45;100.00;99635.66;5121722;27;45352;-63
2023/03/26 08:24:21;;;;;;;;;0.50;0.50;;;;;8.53;100.00;99645.88;5121782;27;45304;-63
2023/03/26 08:27:03;;;;;;;;;2.00;1.00;;;;;8.53;100.00;99649.34;5121740;27;45683;-64
2023/03/26 08:29:28;;;;;;;;;1.00;1.00;;;;;8.63;100.00;99651.69;5121426;27;46522;-64
2023/03/26 08:31:56;;;;;;;;;4.00;2.00;;;;;8.59;100.00;99645.69;5121353;27;45437;-64
2023/03/26 08:34:21;;;;;;;;;3.00;1.00;;;;;8.68;100.00;99658.53;5121365;27;45390;-64
2023/03/26 08:36:47;;;;;;;;;4.25;2.00;;;;;8.61;100.00;99650.88;5121624;27;45431;-64
2023/03/26 08:39:13;;;;;;;;;2.25;2.25;;;;;8.64;100.00;99646.41;5121147;27;45605;-64
2023/03/26 08:41:59;;;;;;;;;2.50;2.25;;;;;8.73;100.00;99660.97;5121423;27;45306;-63
2023/03/26 08:44:55;;;;;;;;;4.00;3.00;;;;;8.78;100.00;99666.06;5121652;27;45339;-63
2023/03/26 08:47:39;;;;;;;;;41.33;35.67;;;;;8.87;100.00;99668.38;5121556;27;45196;-64
2023/03/26 08:50:28;;;;;;;;;4.00;4.00;;;;;8.89;100.00;99666.59;5120653;27;46643;-64
2023/03/26 08:53:31;;;;;;;;;8.33;6.00;;;;;8.98;100.00;99670.66;5121186;27;45310;-63
2023/03/26 08:55:56;;;;;;;;;6.00;6.00;;;;;9.05;100.00;99670.41;5121053;27;45212;-64
2023/03/26 08:58:42;;;;;;;;;6.00;4.33;;;;;9.15;100.00;99676.19;5121393;27;45331;-64
2023/03/26 09:01:26;;;;;;;;;4.00;4.00;;;;;9.19;100.00;99682.19;5121073;27;45408;-64
2023/03/26 09:04:30;;;;;;;;;6.75;6.75;;;;;9.22;100.00;99675.09;5120777;27;45492;-64
2023/03/26 09:07:14;;;;;;;;;6.25;6.25;;;;;9.36;100.00;99684.25;5037360;28;45407;-64
2023/03/26 09:10:16;;;;;;;;;6.67;6.67;;;;;9.38;100.00;99690.28;5047831;28;45406;-64
2023/03/26 09:13:04;;;;;;;;;10.50;6.25;;;;;9.47;100.00;99689.09;5057195;28;45407;-64
2023/03/26 09:15:50;;;;;;;;;12.67;8.67;;;;;9.55;100.00;99697.59;4997018;28;45356;-64
2023/03/26 09:18:31;;;;;;;;;14.33;12.33;;;;;9.62;100.00;99700.88;4997545;28;45942;-64
2023/03/26 09:21:42;;;;;;;;;8.67;7.67;;;;;9.65;100.00;99706.84;4997457;28;45491;-64
2023/03/26 09:24:10;;;;;;;;;12.33;9.33;;;;;9.80;100.00;99704.59;4995190;28;45927;-63
2023/03/26 09:27:12;;;;;;;;;9.33;9.33;;;;;9.93;100.00;99708.47;4994700;28;45892;-63
2023/03/26 09:29:56;;;;;;;;;9.67;9.67;;;;;10.08;100.00;99713.19;4996623;28;45580;-63
2023/03/26 09:32:36;;;;;;;;;9.00;9.00;;;;;10.19;99.53;99707.50;4997464;28;45408;-63
2023/03/26 09:35:20;;;;;;;;;12.00;9.00;;;;;10.24;98.94;99708.19;4996806;28;45550;-63
2023/03/26 09:38:10;;;;;;;;;7.00;6.67;;;;;10.32;98.58;99717.56;4996882;28;45431;-64
2023/03/26 09:41:05;;;;;;;;;6.00;6.00;;;;;10.37;97.98;99698.09;4997110;28;45274;-64
2023/03/26 09:44:07;;;;;;;;;7.25;7.00;;;;;10.58;97.72;99724.50;5021653;28;45556;-64
2023/03/26 09:47:00;;;;;;;;;12.67;12.33;;;;;10.69;97.43;99724.03;5056384;28;46363;-64
2023/03/26 09:49:38;;;;;;;;;15.00;14.67;;;;;10.76;98.70;99729.03;5056291;28;45358;-64
2023/03/26 09:52:33;;;;;;;;;57.00;46.33;;;;;10.84;97.47;99735.75;5074781;27;45436;-64
2023/03/26 09:54:59;;;;;;;;;42.00;34.00;;;;;10.89;94.83;99742.56;5120039;27;45433;-63
2023/03/26 09:57:32;;;;;;;;;11.33;9.33;;;;;10.90;94.63;99751.31;5120068;27;46082;-64
2023/03/26 10:00:31;;;;;;;;;8.67;7.67;;;;;10.90;95.61;99739.00;5119980;27;45354;-64
2023/03/26 10:03:12;;;;;;;;;8.00;6.25;;;;;10.92;93.78;99752.97;5120075;27;45198;-64
2023/03/26 10:06:11;;;;;;;;;11.00;10.00;;;;;10.96;94.91;99757.19;5120054;27;45320;-64
2023/03/26 10:08:52;;;;;;;;;7.00;5.50;;;;;10.95;93.36;99765.16;5119231;27;45424;-64
2023/03/26 10:11:36;;;;;;;;;6.00;4.75;;;;;10.94;93.56;99773.97;5119862;27;45403;-64
2023/03/26 10:14:28;;;;;;;;;4.00;4.00;;;;;10.93;93.58;99770.47;5119049;27;45395;-64
2023/03/26 10:17:12;;;;;;;;;11.00;11.00;;;;;10.94;94.37;99779.25;5120147;27;45230;-64
2023/03/26 10:19:46;;;;;;;;;8.50;5.00;;;;;10.95;94.04;99786.25;5119734;27;45203;-64
2023/03/26 10:23:10;;;;;;;;;4.25;3.00;;;;;10.91;91.61;99790.75;5119582;27;45225;-64
2023/03/26 10:25:36;;;;;;;;;4.75;4.75;;;;;10.83;92.07;99802.50;4957111;28;45411;-64
2023/03/26 10:28:10;;;;;;;;;5.75;5.00;;;;;10.79;92.21;99807.91;4957472;28;45329;-64
2023/03/26 10:30:47;;;;;;;;;9.67;7.33;;;;;10.79;95.55;99812.31;4956729;28;46650;-64
2023/03/26 10:33:51;;;;;;;;;7.00;5.25;;;;;10.79;92.98;99815.78;4956927;28;45317;-64
2023/03/26 10:36:22;;;;;;;;;5.00;5.00;;;;;10.79;91.63;99823.69;4954904;28;45549;-64
2023/03/26 10:39:44;;;;;;;;;4.00;4.00;;;;;10.75;92.49;99827.34;4957255;28;45337;-64
2023/03/26 10:42:19;;;;;;;;;4.00;3.00;;;;;10.75;91.28;99839.69;4861824;29;45396;-64
2023/03/26 10:44:53;;;;;;;;;5.00;5.00;;;;;10.70;92.96;99831.94;4861733;29;45294;-64
2023/03/26 10:47:40;;;;;;;;;4.00;4.00;;;;;10.69;93.71;99851.28;4861662;29;45448;-64
2023/03/26 10:50:27;;;;;;;;;11.00;6.00;;;;;10.71;93.35;99853.88;4843868;29;45366;-64
2023/03/26 10:53:13;;;;;;;;;6.00;6.00;;;;;10.67;94.52;99855.75;4842883;29;45315;-63
2023/03/26 10:55:45;;;;;;;;;7.00;5.33;;;;;10.68;92.02;99860.09;4842761;29;45546;-63
2023/03/26 10:58:19;;;;;;;;;8.00;7.33;;;;;10.67;94.73;99873.31;4843214;29;45458;-63
2023/03/26 11:01:18;;;;;;;;;5.00;5.00;;;;;10.61;93.66;99872.63;4916549;28;45415;-63
2023/03/26 11:03:53;;;;;;;;;20.33;17.00;;;;;10.65;95.70;99877.81;4956275;28;45680;-63
2023/03/26 11:06:37;;;;;;;;;6.75;5.75;;;;;10.75;96.09;99885.28;4956243;28;45397;-63
2023/03/26 11:09:33;;;;;;;;;19.67;17.00;;;;;10.83;93.79;99882.34;4956680;28;45934;-64
2023/03/26 11:12:10;;;;;;;;;9.67;7.67;;;;;11.01;93.34;99893.97;4922215;28;45348;-63
2023/03/26 11:14:49;;;;;;;;;10.00;9.33;;;;;11.13;93.97;99900.56;4956082;28;47041;-63
2023/03/26 11:17:32;;;;;;;;;11.00;11.00;;;;;11.25;91.22;99900.06;4955862;28;45494;-64
2023/03/26 11:20:08;;;;;;;;;5.75;5.75;;;;;11.39;91.29;99912.69;4955784;28;45590;-64
2023/03/26 11:22:51;;;;;;;;;11.33;7.00;;;;;11.50;90.70;99914.91;4956050;28;45487;-63
2023/03/26 11:25:33;;;;;;;;;8.50;6.00;;;;;11.65;90.22;99924.84;4956140;28;45363;-64
2023/03/26 11:28:31;;;;;;;;;5.50;5.50;;;;;11.78;88.79;99927.84;4956335;28;45495;-63
2023/03/26 11:31:13;;;;;;;;;5.50;5.25;;;;;11.90;88.09;99941.44;4956391;28;45299;-64
2023/03/26 11:33:47;;;;;;;;;8.25;5.00;;;;;11.88;87.21;99943.28;4956504;28;45335;-64
2023/03/26 11:36:16;;;;;;;;;8.50;6.75;;;;;11.82;86.90;99937.34;4955973;28;45658;-64
2023/03/26 11:38:56;;;;;;;;;6.00;6.00;;;;;11.74;86.86;99947.34;4956172;28;45444;-64
2023/03/26 11:41:25;;;;;;;;;3.00;3.00;;;;;11.66;85.72;99955.56;4988090;28;45426;-63
2023/03/26 11:43:56;;;;;;;;;3.75;2.00;;;;;11.39;85.58;99922.41;4995515;28;45393;-64
2023/03/26 11:46:24;;;;;;;;;3.00;3.00;;;;;11.55;85.38;99962.19;4994977;28;46007;-64
2023/03/26 11:48:51;;;;;;;;;5.00;5.00;;;;;11.52;86.00;99967.56;5047266;27;45427;-64
2023/03/26 11:51:29;;;;;;;;;3.75;2.00;;;;;11.43;86.54;99953.84;5118654;27;45253;-63
2023/03/26 11:53:56;;;;;;;;;5.00;3.00;;;;;11.49;86.89;99969.41;5118614;27;45407;-64
2023/03/26 11:56:38;;;;;;;;;6.75;5.00;;;;;11.59;86.29;99984.84;5118066;27;46609;-64
2023/03/26 11:59:16;;;;;;;;;2.50;2.50;;;;;11.61;85.94;99989.16;5118362;27;45298;-64